sensor_id;sensor_type;location;lat;lon;timestamp;P1;durP1;ratioP1;P2;durP2;ratioP2
51981;SDS011;37998;53.416;6.730;2024-03-23T00:54:31;35.70;;;7.25;;
51981;SDS011;37998;53.416;6.730;2024-03-23T00:56:57;36.33;;;7.20;;
51981;SDS011;37998;53.416;6.730;2024-03-23T00:59:23;36.45;;;7.85;;
51981;SDS011;37998;53.416;6.730;2024-03-23T01:01:52;32.25;;;7.50;;
51981;SDS011;37998;53.416;6.730;2024-03-23T01:04:18;28.13;;;6.85;;
51981;SDS011;37998;53.416;6.730;2024-03-23T01:06:44;27.60;;;6.45;;
51981;SDS011;37998;53.416;6.730;2024-03-23T01:09:10;29.60;;;6.72;;
51981;SDS011;37998;53.416;6.730;2024-03-23T01:11:39;26.35;;;6.47;;
51981;SDS011;37998;53.416;6.730;2024-03-23T01:14:05;29.60;;;6.80;;
51981;SDS011;37998;53.416;6.730;2024-03-23T01:16:32;29.38;;;7.15;;
51981;SDS011;37998;53.416;6.730;2024-03-23T01:18:58;26.52;;;6.35;;
51981;SDS011;37998;53.416;6.730;2024-03-23T01:21:24;33.58;;;6.97;;
51981;SDS011;37998;53.416;6.730;2024-03-23T01:23:50;26.15;;;7.20;;
51981;SDS011;37998;53.416;6.730;2024-03-23T01:26:16;25.90;;;6.63;;
51981;SDS011;37998;53.416;6.730;2024-03-23T01:28:42;30.50;;;7.00;;
51981;SDS011;37998;53.416;6.730;2024-03-23T01:31:07;28.88;;;7.10;;
51981;SDS011;37998;53.416;6.730;2024-03-23T01:33:36;24.55;;;6.82;;
51981;SDS011;37998;53.416;6.730;2024-03-23T01:36:02;29.17;;;7.05;;
51981;SDS011;37998;53.416;6.730;2024-03-23T01:38:28;38.70;;;7.60;;
51981;SDS011;37998;53.416;6.730;2024-03-23T01:40:57;31.08;;;6.35;;
51981;SDS011;37998;53.416;6.730;2024-03-23T01:43:23;26.70;;;6.90;;
51981;SDS011;37998;53.416;6.730;2024-03-23T01:45:50;29.23;;;6.63;;
51981;SDS011;37998;53.416;6.730;2024-03-23T01:48:20;29.08;;;7.05;;
51981;SDS011;37998;53.416;6.730;2024-03-23T01:50:46;29.05;;;7.43;;
51981;SDS011;37998;53.416;6.730;2024-03-23T01:53:16;23.77;;;7.30;;
51981;SDS011;37998;53.416;6.730;2024-03-23T01:55:44;32.13;;;8.07;;
51981;SDS011;37998;53.416;6.730;2024-03-23T01:58:10;30.05;;;6.55;;
51981;SDS011;37998;53.416;6.730;2024-03-23T02:00:36;34.28;;;7.78;;
51981;SDS011;37998;53.416;6.730;2024-03-23T02:03:21;32.97;;;8.15;;
51981;SDS011;37998;53.416;6.730;2024-03-23T02:05:54;33.80;;;7.32;;
51981;SDS011;37998;53.416;6.730;2024-03-23T02:08:21;24.20;;;6.43;;
51981;SDS011;37998;53.416;6.730;2024-03-23T02:10:50;29.38;;;6.93;;
51981;SDS011;37998;53.416;6.730;2024-03-23T02:13:17;36.05;;;7.40;;
51981;SDS011;37998;53.416;6.730;2024-03-23T02:15:46;33.83;;;7.18;;
51981;SDS011;37998;53.416;6.730;2024-03-23T02:18:13;30.52;;;6.63;;
51981;SDS011;37998;53.416;6.730;2024-03-23T02:20:39;22.25;;;6.70;;
51981;SDS011;37998;53.416;6.730;2024-03-23T02:23:12;30.58;;;7.70;;
51981;SDS011;37998;53.416;6.730;2024-03-23T02:25:42;33.65;;;6.85;;
51981;SDS011;37998;53.416;6.730;2024-03-23T02:28:08;32.67;;;6.88;;
51981;SDS011;37998;53.416;6.730;2024-03-23T02:30:34;27.60;;;7.80;;
51981;SDS011;37998;53.416;6.730;2024-03-23T02:33:00;22.65;;;6.97;;
51981;SDS011;37998;53.416;6.730;2024-03-23T02:35:27;28.17;;;7.22;;
51981;SDS011;37998;53.416;6.730;2024-03-23T02:37:53;28.38;;;6.70;;
51981;SDS011;37998;53.416;6.730;2024-03-23T02:40:19;24.13;;;6.45;;
51981;SDS011;37998;53.416;6.730;2024-03-23T02:42:46;21.58;;;5.90;;
51981;SDS011;37998;53.416;6.730;2024-03-23T02:45:12;24.35;;;6.50;;
51981;SDS011;37998;53.416;6.730;2024-03-23T02:47:38;22.15;;;5.90;;
51981;SDS011;37998;53.416;6.730;2024-03-23T02:50:04;26.60;;;6.35;;
51981;SDS011;37998;53.416;6.730;2024-03-23T02:52:30;23.42;;;6.50;;
51981;SDS011;37998;53.416;6.730;2024-03-23T02:54:56;26.23;;;6.20;;
51981;SDS011;37998;53.416;6.730;2024-03-23T02:57:22;30.10;;;6.70;;
51981;SDS011;37998;53.416;6.730;2024-03-23T02:59:48;24.77;;;6.20;;
51981;SDS011;37998;53.416;6.730;2024-03-23T03:02:14;27.75;;;6.95;;
51981;SDS011;37998;53.416;6.730;2024-03-23T03:04:41;22.98;;;6.13;;
51981;SDS011;37998;53.416;6.730;2024-03-23T03:07:08;27.15;;;9.25;;
51981;SDS011;37998;53.416;6.730;2024-03-23T03:09:33;28.98;;;6.90;;
51981;SDS011;37998;53.416;6.730;2024-03-23T03:12:03;21.55;;;7.00;;
51981;SDS011;37998;53.416;6.730;2024-03-23T03:14:29;22.70;;;6.57;;
51981;SDS011;37998;53.416;6.730;2024-03-23T03:16:58;22.50;;;5.60;;
51981;SDS011;37998;53.416;6.730;2024-03-23T03:19:23;23.38;;;6.05;;
51981;SDS011;37998;53.416;6.730;2024-03-23T03:21:53;30.42;;;6.78;;
51981;SDS011;37998;53.416;6.730;2024-03-23T03:24:19;22.33;;;5.20;;
51981;SDS011;37998;53.416;6.730;2024-03-23T03:26:46;30.42;;;6.65;;
51981;SDS011;37998;53.416;6.730;2024-03-23T03:29:12;21.70;;;5.07;;
51981;SDS011;37998;53.416;6.730;2024-03-23T03:31:38;24.38;;;5.15;;
51981;SDS011;37998;53.416;6.730;2024-03-23T03:34:05;19.10;;;5.25;;
51981;SDS011;37998;53.416;6.730;2024-03-23T03:36:31;18.55;;;6.15;;
51981;SDS011;37998;53.416;6.730;2024-03-23T03:38:57;20.58;;;4.90;;
51981;SDS011;37998;53.416;6.730;2024-03-23T03:41:23;29.98;;;6.25;;
51981;SDS011;37998;53.416;6.730;2024-03-23T03:43:49;32.72;;;6.50;;
51981;SDS011;37998;53.416;6.730;2024-03-23T03:46:15;20.98;;;4.60;;
51981;SDS011;37998;53.416;6.730;2024-03-23T03:48:41;16.88;;;5.38;;
51981;SDS011;37998;53.416;6.730;2024-03-23T03:51:14;26.20;;;6.25;;
51981;SDS011;37998;53.416;6.730;2024-03-23T03:53:40;22.10;;;4.88;;
51981;SDS011;37998;53.416;6.730;2024-03-23T03:56:07;20.58;;;5.65;;
51981;SDS011;37998;53.416;6.730;2024-03-23T03:58:33;27.20;;;8.15;;
51981;SDS011;37998;53.416;6.730;2024-03-23T04:00:59;22.25;;;4.63;;
51981;SDS011;37998;53.416;6.730;2024-03-23T04:03:25;24.02;;;5.90;;
51981;SDS011;37998;53.416;6.730;2024-03-23T04:05:52;19.92;;;4.70;;
51981;SDS011;37998;53.416;6.730;2024-03-23T04:08:20;18.65;;;5.03;;
51981;SDS011;37998;53.416;6.730;2024-03-23T04:10:47;22.17;;;4.72;;
51981;SDS011;37998;53.416;6.730;2024-03-23T04:13:16;23.60;;;5.43;;
51981;SDS011;37998;53.416;6.730;2024-03-23T04:15:42;22.30;;;6.00;;
51981;SDS011;37998;53.416;6.730;2024-03-23T04:18:11;23.02;;;5.93;;
51981;SDS011;37998;53.416;6.730;2024-03-23T04:20:37;24.05;;;4.85;;
51981;SDS011;37998;53.416;6.730;2024-03-23T04:23:03;32.15;;;5.68;;
51981;SDS011;37998;53.416;6.730;2024-03-23T04:25:30;24.13;;;5.28;;
51981;SDS011;37998;53.416;6.730;2024-03-23T04:27:57;22.75;;;5.18;;
51981;SDS011;37998;53.416;6.730;2024-03-23T04:30:23;28.05;;;4.53;;
51981;SDS011;37998;53.416;6.730;2024-03-23T04:32:50;19.40;;;4.40;;
51981;SDS011;37998;53.416;6.730;2024-03-23T04:35:22;22.63;;;4.90;;
51981;SDS011;37998;53.416;6.730;2024-03-23T04:37:51;22.60;;;4.85;;
51981;SDS011;37998;53.416;6.730;2024-03-23T04:40:18;25.20;;;4.95;;
51981;SDS011;37998;53.416;6.730;2024-03-23T04:42:44;20.13;;;5.28;;
51981;SDS011;37998;53.416;6.730;2024-03-23T04:45:10;14.68;;;4.35;;
51981;SDS011;37998;53.416;6.730;2024-03-23T04:47:37;14.70;;;4.30;;
51981;SDS011;37998;53.416;6.730;2024-03-23T04:50:05;20.10;;;4.40;;
51981;SDS011;37998;53.416;6.730;2024-03-23T04:52:31;18.60;;;4.75;;
51981;SDS011;37998;53.416;6.730;2024-03-23T04:54:58;20.17;;;5.22;;
51981;SDS011;37998;53.416;6.730;2024-03-23T04:57:24;18.45;;;4.97;;
51981;SDS011;37998;53.416;6.730;2024-03-23T04:59:50;19.58;;;4.68;;
51981;SDS011;37998;53.416;6.730;2024-03-23T05:02:20;22.20;;;4.65;;
51981;SDS011;37998;53.416;6.730;2024-03-23T05:04:47;25.17;;;4.88;;
51981;SDS011;37998;53.416;6.730;2024-03-23T05:07:14;27.92;;;5.18;;
51981;SDS011;37998;53.416;6.730;2024-03-23T05:09:41;17.00;;;4.35;;
51981;SDS011;37998;53.416;6.730;2024-03-23T05:12:07;16.65;;;4.82;;
51981;SDS011;37998;53.416;6.730;2024-03-23T05:14:33;18.90;;;4.65;;
51981;SDS011;37998;53.416;6.730;2024-03-23T05:16:59;24.65;;;4.47;;
51981;SDS011;37998;53.416;6.730;2024-03-23T05:19:25;19.90;;;4.95;;
51981;SDS011;37998;53.416;6.730;2024-03-23T05:21:55;24.15;;;4.90;;
51981;SDS011;37998;53.416;6.730;2024-03-23T05:24:21;28.70;;;4.38;;
51981;SDS011;37998;53.416;6.730;2024-03-23T05:26:47;24.00;;;4.72;;
51981;SDS011;37998;53.416;6.730;2024-03-23T05:29:13;19.95;;;4.32;;
51981;SDS011;37998;53.416;6.730;2024-03-23T05:31:42;21.52;;;4.90;;
51981;SDS011;37998;53.416;6.730;2024-03-23T05:34:09;19.58;;;4.70;;
51981;SDS011;37998;53.416;6.730;2024-03-23T05:36:35;25.90;;;5.07;;
51981;SDS011;37998;53.416;6.730;2024-03-23T05:39:02;20.90;;;4.82;;
51981;SDS011;37998;53.416;6.730;2024-03-23T05:41:28;24.10;;;4.88;;
51981;SDS011;37998;53.416;6.730;2024-03-23T05:43:54;22.60;;;5.45;;
51981;SDS011;37998;53.416;6.730;2024-03-23T05:46:20;18.60;;;4.68;;
51981;SDS011;37998;53.416;6.730;2024-03-23T05:48:46;22.55;;;4.75;;
51981;SDS011;37998;53.416;6.730;2024-03-23T05:51:15;18.48;;;4.30;;
51981;SDS011;37998;53.416;6.730;2024-03-23T05:53:42;19.95;;;4.80;;
51981;SDS011;37998;53.416;6.730;2024-03-23T05:56:07;21.95;;;5.05;;
51981;SDS011;37998;53.416;6.730;2024-03-23T05:58:36;21.17;;;4.97;;
51981;SDS011;37998;53.416;6.730;2024-03-23T06:01:03;14.45;;;3.90;;
51981;SDS011;37998;53.416;6.730;2024-03-23T06:03:30;21.30;;;5.05;;
51981;SDS011;37998;53.416;6.730;2024-03-23T06:05:56;16.95;;;5.63;;
51981;SDS011;37998;53.416;6.730;2024-03-23T06:08:22;17.23;;;4.13;;
51981;SDS011;37998;53.416;6.730;2024-03-23T06:10:49;17.83;;;4.38;;
51981;SDS011;37998;53.416;6.730;2024-03-23T06:13:15;24.83;;;4.78;;
51981;SDS011;37998;53.416;6.730;2024-03-23T06:15:42;22.90;;;3.90;;
51981;SDS011;37998;53.416;6.730;2024-03-23T06:18:08;16.90;;;4.55;;
51981;SDS011;37998;53.416;6.730;2024-03-23T06:20:34;14.40;;;4.43;;
51981;SDS011;37998;53.416;6.730;2024-03-23T06:23:00;18.42;;;4.13;;
51981;SDS011;37998;53.416;6.730;2024-03-23T06:25:29;19.67;;;4.43;;
51981;SDS011;37998;53.416;6.730;2024-03-23T06:27:55;17.63;;;4.75;;
51981;SDS011;37998;53.416;6.730;2024-03-23T06:30:21;18.10;;;4.03;;
51981;SDS011;37998;53.416;6.730;2024-03-23T06:32:47;17.40;;;5.68;;
51981;SDS011;37998;53.416;6.730;2024-03-23T06:35:13;21.25;;;4.30;;
51981;SDS011;37998;53.416;6.730;2024-03-23T06:37:39;22.52;;;4.03;;
51981;SDS011;37998;53.416;6.730;2024-03-23T06:40:06;17.98;;;4.10;;
51981;SDS011;37998;53.416;6.730;2024-03-23T06:42:36;17.85;;;3.67;;
51981;SDS011;37998;53.416;6.730;2024-03-23T06:45:02;19.10;;;4.88;;
51981;SDS011;37998;53.416;6.730;2024-03-23T06:47:30;20.88;;;4.35;;
51981;SDS011;37998;53.416;6.730;2024-03-23T06:49:56;17.88;;;4.05;;
51981;SDS011;37998;53.416;6.730;2024-03-23T06:52:22;25.90;;;4.50;;
51981;SDS011;37998;53.416;6.730;2024-03-23T06:54:48;19.85;;;4.22;;
51981;SDS011;37998;53.416;6.730;2024-03-23T06:57:14;24.05;;;4.28;;
51981;SDS011;37998;53.416;6.730;2024-03-23T06:59:40;18.02;;;3.22;;
51981;SDS011;37998;53.416;6.730;2024-03-23T07:02:06;21.17;;;4.13;;
51981;SDS011;37998;53.416;6.730;2024-03-23T07:04:34;19.23;;;4.60;;
51981;SDS011;37998;53.416;6.730;2024-03-23T07:07:00;12.85;;;3.42;;
51981;SDS011;37998;53.416;6.730;2024-03-23T07:09:27;16.48;;;3.83;;
51981;SDS011;37998;53.416;6.730;2024-03-23T07:11:54;18.88;;;3.90;;
51981;SDS011;37998;53.416;6.730;2024-03-23T07:14:22;20.98;;;3.60;;
51981;SDS011;37998;53.416;6.730;2024-03-23T07:16:48;18.33;;;4.25;;
51981;SDS011;37998;53.416;6.730;2024-03-23T07:19:18;14.52;;;4.00;;
51981;SDS011;37998;53.416;6.730;2024-03-23T07:21:47;21.65;;;4.00;;
51981;SDS011;37998;53.416;6.730;2024-03-23T07:24:15;15.32;;;3.97;;
51981;SDS011;37998;53.416;6.730;2024-03-23T07:26:43;17.40;;;4.43;;
51981;SDS011;37998;53.416;6.730;2024-03-23T07:29:09;9.95;;;3.13;;
51981;SDS011;37998;53.416;6.730;2024-03-23T07:31:35;15.00;;;3.15;;
51981;SDS011;37998;53.416;6.730;2024-03-23T07:34:04;18.17;;;3.80;;
51981;SDS011;37998;53.416;6.730;2024-03-23T07:36:31;14.77;;;3.25;;
51981;SDS011;37998;53.416;6.730;2024-03-23T07:38:57;18.83;;;3.28;;
51981;SDS011;37998;53.416;6.730;2024-03-23T07:41:23;16.42;;;3.30;;
51981;SDS011;37998;53.416;6.730;2024-03-23T07:43:49;20.10;;;3.63;;
51981;SDS011;37998;53.416;6.730;2024-03-23T07:46:15;22.52;;;4.75;;
51981;SDS011;37998;53.416;6.730;2024-03-23T07:48:42;14.98;;;4.72;;
51981;SDS011;37998;53.416;6.730;2024-03-23T07:51:09;18.33;;;3.97;;
51981;SDS011;37998;53.416;6.730;2024-03-23T07:53:36;16.00;;;3.78;;
51981;SDS011;37998;53.416;6.730;2024-03-23T07:56:05;10.43;;;3.05;;
51981;SDS011;37998;53.416;6.730;2024-03-23T07:58:32;13.32;;;3.30;;
51981;SDS011;37998;53.416;6.730;2024-03-23T08:01:11;18.42;;;3.05;;
51981;SDS011;37998;53.416;6.730;2024-03-23T08:03:40;15.27;;;3.13;;
51981;SDS011;37998;53.416;6.730;2024-03-23T08:08:41;10.98;;;3.15;;
51981;SDS011;37998;53.416;6.730;2024-03-23T08:11:07;14.52;;;3.65;;
51981;SDS011;37998;53.416;6.730;2024-03-23T08:13:38;13.90;;;3.28;;
51981;SDS011;37998;53.416;6.730;2024-03-23T08:16:05;12.93;;;3.05;;
51981;SDS011;37998;53.416;6.730;2024-03-23T08:18:32;17.27;;;3.40;;
51981;SDS011;37998;53.416;6.730;2024-03-23T08:21:02;12.10;;;3.65;;
51981;SDS011;37998;53.416;6.730;2024-03-23T08:23:30;16.17;;;3.13;;
51981;SDS011;37998;53.416;6.730;2024-03-23T08:26:02;11.15;;;3.35;;
51981;SDS011;37998;53.416;6.730;2024-03-23T08:28:30;20.38;;;3.63;;
51981;SDS011;37998;53.416;6.730;2024-03-23T08:30:56;15.93;;;3.58;;
51981;SDS011;37998;53.416;6.730;2024-03-23T08:33:25;18.05;;;4.68;;
51981;SDS011;37998;53.416;6.730;2024-03-23T08:35:58;14.82;;;3.30;;
51981;SDS011;37998;53.416;6.730;2024-03-23T08:38:26;13.57;;;3.53;;
51981;SDS011;37998;53.416;6.730;2024-03-23T08:41:03;18.55;;;3.40;;
51981;SDS011;37998;53.416;6.730;2024-03-23T08:43:30;11.93;;;3.33;;
51981;SDS011;37998;53.416;6.730;2024-03-23T08:46:10;13.40;;;3.10;;
51981;SDS011;37998;53.416;6.730;2024-03-23T08:48:40;14.88;;;3.53;;
51981;SDS011;37998;53.416;6.730;2024-03-23T08:51:13;12.50;;;3.90;;
51981;SDS011;37998;53.416;6.730;2024-03-23T08:53:41;16.05;;;3.30;;
51981;SDS011;37998;53.416;6.730;2024-03-23T08:56:07;8.15;;;2.90;;
51981;SDS011;37998;53.416;6.730;2024-03-23T08:58:34;13.38;;;3.08;;
51981;SDS011;37998;53.416;6.730;2024-03-23T09:01:06;18.75;;;3.45;;
51981;SDS011;37998;53.416;6.730;2024-03-23T09:03:35;12.90;;;3.10;;
51981;SDS011;37998;53.416;6.730;2024-03-23T09:06:02;13.57;;;3.47;;
51981;SDS011;37998;53.416;6.730;2024-03-23T09:08:36;17.80;;;3.58;;
51981;SDS011;37998;53.416;6.730;2024-03-23T09:11:09;12.25;;;3.15;;
51981;SDS011;37998;53.416;6.730;2024-03-23T09:13:37;18.73;;;3.58;;
51981;SDS011;37998;53.416;6.730;2024-03-23T09:16:04;10.75;;;3.45;;
51981;SDS011;37998;53.416;6.730;2024-03-23T09:18:31;15.02;;;3.13;;
51981;SDS011;37998;53.416;6.730;2024-03-23T09:20:58;17.40;;;3.15;;
51981;SDS011;37998;53.416;6.730;2024-03-23T09:23:24;14.80;;;3.35;;
51981;SDS011;37998;53.416;6.730;2024-03-23T09:25:50;10.93;;;3.40;;
51981;SDS011;37998;53.416;6.730;2024-03-23T09:28:16;11.27;;;2.90;;
51981;SDS011;37998;53.416;6.730;2024-03-23T09:30:42;6.85;;;2.25;;
51981;SDS011;37998;53.416;6.730;2024-03-23T09:33:12;6.15;;;1.60;;
51981;SDS011;37998;53.416;6.730;2024-03-23T09:35:41;4.10;;;1.90;;
51981;SDS011;37998;53.416;6.730;2024-03-23T09:38:10;6.43;;;2.20;;
51981;SDS011;37998;53.416;6.730;2024-03-23T09:40:42;11.60;;;2.80;;
51981;SDS011;37998;53.416;6.730;2024-03-23T09:43:09;14.38;;;2.67;;
51981;SDS011;37998;53.416;6.730;2024-03-23T09:45:38;10.45;;;2.80;;
51981;SDS011;37998;53.416;6.730;2024-03-23T09:48:09;11.23;;;3.28;;
51981;SDS011;37998;53.416;6.730;2024-03-23T09:50:36;7.82;;;2.20;;
51981;SDS011;37998;53.416;6.730;2024-03-23T09:53:04;6.80;;;2.33;;
51981;SDS011;37998;53.416;6.730;2024-03-23T09:55:34;11.90;;;2.92;;
51981;SDS011;37998;53.416;6.730;2024-03-23T09:58:06;10.03;;;3.10;;
51981;SDS011;37998;53.416;6.730;2024-03-23T10:00:36;14.98;;;3.08;;
51981;SDS011;37998;53.416;6.730;2024-03-23T10:03:02;15.07;;;3.72;;
51981;SDS011;37998;53.416;6.730;2024-03-23T10:05:28;13.57;;;2.85;;
51981;SDS011;37998;53.416;6.730;2024-03-23T10:07:56;11.73;;;2.83;;
51981;SDS011;37998;53.416;6.730;2024-03-23T10:10:22;14.48;;;2.80;;
51981;SDS011;37998;53.416;6.730;2024-03-23T10:12:50;10.35;;;2.95;;
51981;SDS011;37998;53.416;6.730;2024-03-23T10:15:23;8.52;;;2.70;;
51981;SDS011;37998;53.416;6.730;2024-03-23T10:17:53;13.98;;;3.10;;
51981;SDS011;37998;53.416;6.730;2024-03-23T10:20:22;13.48;;;4.13;;
51981;SDS011;37998;53.416;6.730;2024-03-23T10:22:49;14.05;;;2.95;;
51981;SDS011;37998;53.416;6.730;2024-03-23T10:25:16;21.02;;;4.80;;
51981;SDS011;37998;53.416;6.730;2024-03-23T10:27:57;11.48;;;2.90;;
51981;SDS011;37998;53.416;6.730;2024-03-23T10:30:25;17.05;;;3.38;;
51981;SDS011;37998;53.416;6.730;2024-03-23T10:33:11;11.90;;;3.10;;
51981;SDS011;37998;53.416;6.730;2024-03-23T10:35:37;13.57;;;3.85;;
51981;SDS011;37998;53.416;6.730;2024-03-23T10:38:07;16.15;;;3.90;;
51981;SDS011;37998;53.416;6.730;2024-03-23T10:40:34;15.85;;;3.30;;
51981;SDS011;37998;53.416;6.730;2024-03-23T10:43:02;19.05;;;4.20;;
51981;SDS011;37998;53.416;6.730;2024-03-23T10:45:31;16.33;;;3.20;;
51981;SDS011;37998;53.416;6.730;2024-03-23T10:47:57;18.50;;;3.70;;
51981;SDS011;37998;53.416;6.730;2024-03-23T10:50:23;11.05;;;3.00;;
51981;SDS011;37998;53.416;6.730;2024-03-23T10:52:50;13.43;;;3.80;;
51981;SDS011;37998;53.416;6.730;2024-03-23T10:55:18;12.63;;;4.15;;
51981;SDS011;37998;53.416;6.730;2024-03-23T10:57:50;12.95;;;3.38;;
51981;SDS011;37998;53.416;6.730;2024-03-23T11:00:22;11.60;;;2.70;;
51981;SDS011;37998;53.416;6.730;2024-03-23T11:02:49;17.40;;;4.43;;
51981;SDS011;37998;53.416;6.730;2024-03-23T11:07:50;11.07;;;2.80;;
51981;SDS011;37998;53.416;6.730;2024-03-23T11:10:29;12.65;;;3.63;;
51981;SDS011;37998;53.416;6.730;2024-03-23T11:12:57;17.42;;;3.97;;
51981;SDS011;37998;53.416;6.730;2024-03-23T11:15:23;15.98;;;4.13;;
51981;SDS011;37998;53.416;6.730;2024-03-23T11:18:05;12.45;;;3.00;;
51981;SDS011;37998;53.416;6.730;2024-03-23T11:20:37;12.77;;;3.22;;
51981;SDS011;37998;53.416;6.730;2024-03-23T11:23:09;13.60;;;3.20;;
51981;SDS011;37998;53.416;6.730;2024-03-23T11:25:53;13.27;;;3.55;;
51981;SDS011;37998;53.416;6.730;2024-03-23T11:28:19;17.52;;;4.40;;
51981;SDS011;37998;53.416;6.730;2024-03-23T11:30:45;14.48;;;3.28;;
51981;SDS011;37998;53.416;6.730;2024-03-23T11:33:11;12.93;;;3.17;;
51981;SDS011;37998;53.416;6.730;2024-03-23T11:35:38;13.75;;;2.78;;
51981;SDS011;37998;53.416;6.730;2024-03-23T11:38:09;10.63;;;2.65;;
51981;SDS011;37998;53.416;6.730;2024-03-23T11:43:14;15.00;;;2.88;;
51981;SDS011;37998;53.416;6.730;2024-03-23T11:45:44;10.07;;;2.67;;
51981;SDS011;37998;53.416;6.730;2024-03-23T11:48:11;9.85;;;2.50;;
51981;SDS011;37998;53.416;6.730;2024-03-23T11:50:40;13.00;;;2.83;;
51981;SDS011;37998;53.416;6.730;2024-03-23T11:58:16;14.52;;;4.07;;
51981;SDS011;37998;53.416;6.730;2024-03-23T12:00:51;16.88;;;3.80;;
51981;SDS011;37998;53.416;6.730;2024-03-23T12:03:28;22.58;;;4.35;;
51981;SDS011;37998;53.416;6.730;2024-03-23T12:05:59;18.70;;;4.00;;
51981;SDS011;37998;53.416;6.730;2024-03-23T12:08:34;13.57;;;2.22;;
51981;SDS011;37998;53.416;6.730;2024-03-23T12:11:08;6.10;;;1.98;;
51981;SDS011;37998;53.416;6.730;2024-03-23T12:13:45;5.78;;;1.90;;
51981;SDS011;37998;53.416;6.730;2024-03-23T12:16:15;4.85;;;1.80;;
51981;SDS011;37998;53.416;6.730;2024-03-23T12:18:49;12.73;;;2.83;;
51981;SDS011;37998;53.416;6.730;2024-03-23T12:21:18;11.85;;;3.00;;
51981;SDS011;37998;53.416;6.730;2024-03-23T12:23:44;13.57;;;2.67;;
51981;SDS011;37998;53.416;6.730;2024-03-23T12:26:12;15.30;;;3.10;;
51981;SDS011;37998;53.416;6.730;2024-03-23T12:28:38;8.80;;;3.03;;
51981;SDS011;37998;53.416;6.730;2024-03-23T12:31:04;13.77;;;3.60;;
51981;SDS011;37998;53.416;6.730;2024-03-23T12:33:33;12.85;;;3.50;;
51981;SDS011;37998;53.416;6.730;2024-03-23T12:35:59;21.45;;;4.03;;
51981;SDS011;37998;53.416;6.730;2024-03-23T12:38:25;9.93;;;3.40;;
51981;SDS011;37998;53.416;6.730;2024-03-23T12:40:51;18.35;;;3.13;;
51981;SDS011;37998;53.416;6.730;2024-03-23T12:43:18;13.00;;;3.20;;
51981;SDS011;37998;53.416;6.730;2024-03-23T12:45:47;13.93;;;3.45;;
51981;SDS011;37998;53.416;6.730;2024-03-23T12:48:16;10.70;;;2.30;;
51981;SDS011;37998;53.416;6.730;2024-03-23T12:50:42;9.10;;;2.47;;
51981;SDS011;37998;53.416;6.730;2024-03-23T12:53:08;10.38;;;2.10;;
51981;SDS011;37998;53.416;6.730;2024-03-23T12:55:34;9.82;;;2.58;;
51981;SDS011;37998;53.416;6.730;2024-03-23T12:58:01;10.82;;;2.60;;
51981;SDS011;37998;53.416;6.730;2024-03-23T13:00:28;11.80;;;3.13;;
51981;SDS011;37998;53.416;6.730;2024-03-23T13:02:54;13.82;;;3.13;;
51981;SDS011;37998;53.416;6.730;2024-03-23T13:05:20;13.10;;;4.22;;
51981;SDS011;37998;53.416;6.730;2024-03-23T13:07:46;14.93;;;3.17;;
51981;SDS011;37998;53.416;6.730;2024-03-23T13:10:12;17.63;;;3.30;;
51981;SDS011;37998;53.416;6.730;2024-03-23T13:12:39;12.93;;;3.45;;
51981;SDS011;37998;53.416;6.730;2024-03-23T13:15:06;10.23;;;2.88;;
51981;SDS011;37998;53.416;6.730;2024-03-23T13:17:32;8.77;;;2.80;;
51981;SDS011;37998;53.416;6.730;2024-03-23T13:19:58;7.93;;;2.67;;
51981;SDS011;37998;53.416;6.730;2024-03-23T13:22:24;12.77;;;2.63;;
51981;SDS011;37998;53.416;6.730;2024-03-23T13:24:50;7.28;;;2.45;;
51981;SDS011;37998;53.416;6.730;2024-03-23T13:27:16;8.70;;;2.78;;
51981;SDS011;37998;53.416;6.730;2024-03-23T13:29:42;12.13;;;3.40;;
51981;SDS011;37998;53.416;6.730;2024-03-23T13:32:08;13.32;;;2.85;;
51981;SDS011;37998;53.416;6.730;2024-03-23T13:34:34;11.35;;;2.75;;
51981;SDS011;37998;53.416;6.730;2024-03-23T13:37:05;12.73;;;2.90;;
51981;SDS011;37998;53.416;6.730;2024-03-23T13:39:32;16.23;;;3.03;;
51981;SDS011;37998;53.416;6.730;2024-03-23T13:42:01;11.63;;;2.60;;
51981;SDS011;37998;53.416;6.730;2024-03-23T13:44:28;14.43;;;3.30;;
51981;SDS011;37998;53.416;6.730;2024-03-23T13:46:55;10.48;;;3.25;;
51981;SDS011;37998;53.416;6.730;2024-03-23T13:49:25;15.35;;;3.60;;
51981;SDS011;37998;53.416;6.730;2024-03-23T13:51:55;14.02;;;3.13;;
51981;SDS011;37998;53.416;6.730;2024-03-23T13:54:24;16.05;;;3.95;;
51981;SDS011;37998;53.416;6.730;2024-03-23T13:56:55;14.20;;;3.13;;
51981;SDS011;37998;53.416;6.730;2024-03-23T13:59:22;22.10;;;5.22;;
51981;SDS011;37998;53.416;6.730;2024-03-23T14:01:52;13.07;;;3.08;;
51981;SDS011;37998;53.416;6.730;2024-03-23T14:04:21;11.80;;;3.58;;
51981;SDS011;37998;53.416;6.730;2024-03-23T14:06:49;15.93;;;4.57;;
51981;SDS011;37998;53.416;6.730;2024-03-23T14:09:15;19.10;;;3.45;;
51981;SDS011;37998;53.416;6.730;2024-03-23T14:11:47;17.00;;;3.90;;
51981;SDS011;37998;53.416;6.730;2024-03-23T14:14:13;17.33;;;3.40;;
51981;SDS011;37998;53.416;6.730;2024-03-23T14:16:42;13.32;;;3.25;;
51981;SDS011;37998;53.416;6.730;2024-03-23T14:19:10;8.00;;;3.08;;
51981;SDS011;37998;53.416;6.730;2024-03-23T14:21:39;11.93;;;3.42;;
51981;SDS011;37998;53.416;6.730;2024-03-23T14:24:05;14.00;;;3.15;;
51981;SDS011;37998;53.416;6.730;2024-03-23T14:26:34;11.85;;;3.20;;
51981;SDS011;37998;53.416;6.730;2024-03-23T14:29:01;13.40;;;3.50;;
51981;SDS011;37998;53.416;6.730;2024-03-23T14:31:28;17.70;;;4.32;;
51981;SDS011;37998;53.416;6.730;2024-03-23T14:33:54;17.80;;;3.42;;
51981;SDS011;37998;53.416;6.730;2024-03-23T14:36:20;16.52;;;4.10;;
51981;SDS011;37998;53.416;6.730;2024-03-23T14:38:49;10.50;;;3.03;;
51981;SDS011;37998;53.416;6.730;2024-03-23T14:41:15;19.08;;;3.67;;
51981;SDS011;37998;53.416;6.730;2024-03-23T14:43:44;16.05;;;3.65;;
51981;SDS011;37998;53.416;6.730;2024-03-23T14:46:14;14.40;;;3.70;;
51981;SDS011;37998;53.416;6.730;2024-03-23T14:48:44;13.45;;;3.60;;
51981;SDS011;37998;53.416;6.730;2024-03-23T14:51:11;22.38;;;3.67;;
51981;SDS011;37998;53.416;6.730;2024-03-23T14:53:38;12.57;;;3.30;;
51981;SDS011;37998;53.416;6.730;2024-03-23T14:56:06;15.95;;;2.88;;
51981;SDS011;37998;53.416;6.730;2024-03-23T14:58:33;13.32;;;3.30;;
51981;SDS011;37998;53.416;6.730;2024-03-23T15:01:03;11.43;;;2.90;;
51981;SDS011;37998;53.416;6.730;2024-03-23T15:03:37;11.55;;;3.65;;
51981;SDS011;37998;53.416;6.730;2024-03-23T15:06:08;13.48;;;3.10;;
51981;SDS011;37998;53.416;6.730;2024-03-23T15:08:40;19.45;;;3.92;;
51981;SDS011;37998;53.416;6.730;2024-03-23T15:11:06;17.88;;;3.95;;
51981;SDS011;37998;53.416;6.730;2024-03-23T15:13:35;15.85;;;3.92;;
51981;SDS011;37998;53.416;6.730;2024-03-23T15:16:03;11.15;;;3.25;;
51981;SDS011;37998;53.416;6.730;2024-03-23T15:18:30;11.43;;;3.53;;
51981;SDS011;37998;53.416;6.730;2024-03-23T15:20:58;9.52;;;2.70;;
51981;SDS011;37998;53.416;6.730;2024-03-23T15:23:29;16.98;;;3.22;;
51981;SDS011;37998;53.416;6.730;2024-03-23T15:25:58;15.68;;;3.75;;
51981;SDS011;37998;53.416;6.730;2024-03-23T15:28:35;13.35;;;3.10;;
51981;SDS011;37998;53.416;6.730;2024-03-23T15:31:22;13.85;;;2.75;;
51981;SDS011;37998;53.416;6.730;2024-03-23T15:33:52;12.65;;;2.95;;
51981;SDS011;37998;53.416;6.730;2024-03-23T15:36:18;13.02;;;2.78;;
51981;SDS011;37998;53.416;6.730;2024-03-23T15:38:44;11.55;;;2.92;;
51981;SDS011;37998;53.416;6.730;2024-03-23T15:41:11;13.73;;;2.80;;
51981;SDS011;37998;53.416;6.730;2024-03-23T15:43:40;28.05;;;3.58;;
51981;SDS011;37998;53.416;6.730;2024-03-23T15:46:07;13.18;;;3.15;;